Time;durP1;ratioP1;P1;durP2;ratioP2;P2;SDS_P1;SDS_P2;PMS_P1;PMS_P2;Temp;Humidity;BMP_temperature;BMP_pressure;BME280_temperature;BME280_humidity;BME280_pressure;Samples;Min_cycle;Max_cycle;Signal;HPM_P1;HPM_P2
2023/01/26 00:01:45;;;;;;;25.23;17.60;;;11.30;57.10;;;;;;5072783;28;20032;-72
2023/01/26 00:04:11;;;;;;;27.10;18.10;;;11.30;57.10;;;;;;5072713;28;20024;-72
2023/01/26 00:06:37;;;;;;;25.30;16.98;;;11.30;57.10;;;;;;5072642;28;20028;-72
2023/01/26 00:09:03;;;;;;;26.23;17.58;;;11.30;57.10;;;;;;5072664;28;20367;-72
2023/01/26 00:11:29;;;;;;;23.20;16.42;;;11.30;57.10;;;;;;5072652;28;20060;-72
2023/01/26 00:13:59;;;;;;;24.85;17.17;;;11.30;57.10;;;;;;5072574;28;20028;-72
2023/01/26 00:16:25;;;;;;;24.42;16.30;;;11.30;57.10;;;;;;5072483;28;20028;-79
2023/01/26 00:18:51;;;;;;;24.58;16.52;;;11.20;57.10;;;;;;5072909;28;20030;-72
2023/01/26 00:21:20;;;;;;;22.77;16.23;;;11.20;57.60;;;;;;5072380;28;20441;-72
2023/01/26 00:23:46;;;;;;;20.45;14.70;;;11.20;57.10;;;;;;5072498;28;20028;-72
2023/01/26 00:26:18;;;;;;;22.15;15.45;;;11.20;57.10;;;;;;5072644;28;20029;-72
2023/01/26 00:28:44;;;;;;;21.38;15.57;;;11.20;57.10;;;;;;5072416;28;20024;-72
2023/01/26 00:31:13;;;;;;;22.13;15.75;;;11.20;57.10;;;;;;5072325;28;20062;-72
2023/01/26 00:33:39;;;;;;;21.60;15.05;;;11.20;57.10;;;;;;5072340;28;20489;-72
2023/01/26 00:36:05;;;;;;;24.25;15.65;;;11.20;57.10;;;;;;5072130;28;20062;-80
2023/01/26 00:38:31;;;;;;;21.45;15.05;;;11.20;57.10;;;;;;5072335;28;20107;-80
2023/01/26 00:40:57;;;;;;;21.30;15.65;;;11.20;57.10;;;;;;5072141;28;20112;-80
2023/01/26 00:43:22;;;;;;;21.55;15.10;;;11.20;57.10;;;;;;5072286;28;20039;-80
2023/01/26 00:45:48;;;;;;;20.98;14.38;;;11.20;57.70;;;;;;5072484;28;20131;-79
2023/01/26 00:48:14;;;;;;;20.60;14.60;;;11.20;57.20;;;;;;5072193;28;20380;-80
2023/01/26 00:50:39;;;;;;;18.50;13.82;;;11.20;57.20;;;;;;5072190;28;20111;-80
2023/01/26 00:53:05;;;;;;;19.48;13.70;;;11.10;57.10;;;;;;5072247;28;20028;-80
2023/01/26 00:55:31;;;;;;;19.00;13.85;;;11.20;57.20;;;;;;5072468;28;20099;-72
2023/01/26 00:58:01;;;;;;;19.35;14.00;;;11.10;57.10;;;;;;5072075;28;20052;-72
2023/01/26 01:00:27;;;;;;;20.60;14.40;;;11.20;57.80;;;;;;5071777;28;20061;-72
2023/01/26 01:02:55;;;;;;;18.00;12.82;;;11.20;57.20;;;;;;5071903;28;20031;-73
2023/01/26 01:05:24;;;;;;;18.08;13.13;;;11.10;57.10;;;;;;5072229;28;20036;-72
2023/01/26 01:07:50;;;;;;;16.37;12.63;;;11.20;57.20;;;;;;5072272;28;20017;-73
2023/01/26 01:10:16;;;;;;;17.73;13.95;;;11.10;57.20;;;;;;5071972;28;20772;-72
2023/01/26 01:12:42;;;;;;;17.13;12.75;;;11.10;57.10;;;;;;5072058;28;20074;-80
2023/01/26 01:15:08;;;;;;;18.60;13.25;;;11.10;57.10;;;;;;5072275;28;20029;-80
2023/01/26 01:17:35;;;;;;;17.65;12.50;;;11.10;57.10;;;;;;5071909;28;20020;-80
2023/01/26 01:20:02;;;;;;;15.40;11.63;;;11.10;57.80;;;;;;5071828;28;20029;-80
2023/01/26 01:22:27;;;;;;;15.30;11.80;;;11.10;57.10;;;;;;5071838;28;20115;-79
2023/01/26 01:24:53;;;;;;;17.10;12.55;;;11.10;57.20;;;;;;5071883;28;20158;-80
2023/01/26 01:27:18;;;;;;;18.05;12.35;;;11.10;57.10;;;;;;5072101;28;20085;-80
2023/01/26 01:29:44;;;;;;;17.65;12.23;;;11.10;57.10;;;;;;5071908;28;20088;-80
2023/01/26 01:32:10;;;;;;;14.75;11.35;;;11.10;57.20;;;;;;5071950;28;20116;-80
2023/01/26 01:34:35;;;;;;;17.23;12.13;;;11.10;57.20;;;;;;5071750;28;20028;-80
2023/01/26 01:37:01;;;;;;;17.05;12.02;;;11.10;57.20;;;;;;5071964;28;20099;-80
2023/01/26 01:39:26;;;;;;;14.98;11.27;;;11.10;57.20;;;;;;5071585;28;20029;-80
2023/01/26 01:41:52;;;;;;;16.90;11.88;;;11.10;57.20;;;;;;5071690;28;20037;-80
2023/01/26 01:44:19;;;;;;;16.23;11.82;;;11.10;57.30;;;;;;5071749;28;20025;-80
2023/01/26 01:46:50;;;;;;;16.00;12.07;;;11.10;57.30;;;;;;5072515;28;20043;-80
2023/01/26 01:49:24;;;;;;;15.50;11.15;;;11.10;57.20;;;;;;5075425;28;20096;-80
2023/01/26 01:52:13;;;;;;;16.67;11.50;;;11.00;57.10;;;;;;5075728;28;20051;-80
2023/01/26 01:54:47;;;;;;;16.42;11.15;;;11.00;57.10;;;;;;5075203;28;20089;-80
2023/01/26 01:57:26;;;;;;;14.38;10.80;;;11.10;57.30;;;;;;5075160;28;20074;-80
2023/01/26 01:59:57;;;;;;;14.68;11.27;;;11.00;57.20;;;;;;5074991;28;20055;-80
2023/01/26 02:02:22;;;;;;;16.23;11.48;;;11.00;57.30;;;;;;5075189;28;20060;-80
2023/01/26 02:04:48;;;;;;;14.90;11.63;;;11.00;57.30;;;;;;5075349;28;20020;-80
2023/01/26 02:07:14;;;;;;;16.40;12.07;;;11.00;57.20;;;;;;5075126;28;20103;-80
2023/01/26 02:12:31;;;;;;;14.98;10.20;;;11.00;57.30;;;;;;5075063;28;20039;-80
2023/01/26 02:14:57;;;;;;;16.02;11.27;;;11.00;57.30;;;;;;5074953;28;20097;-80
2023/01/26 02:17:23;;;;;;;11.80;9.18;;;11.00;57.30;;;;;;5075082;28;20025;-80
2023/01/26 02:20:17;;;;;;;12.68;10.38;;;11.00;57.30;;;;;;5074692;28;20033;-79
2023/01/26 02:22:43;;;;;;;12.68;9.88;;;11.00;57.40;;;;;;5074751;28;20024;-80
2023/01/26 02:25:39;;;;;;;13.85;9.95;;;11.00;57.70;;;;;;5074725;28;20035;-80
2023/01/26 02:28:05;;;;;;;12.45;9.65;;;11.00;57.80;;;;;;5074804;28;20039;-73
2023/01/26 02:30:32;;;;;;;13.05;10.05;;;11.00;57.90;;;;;;5074941;28;20013;-72
2023/01/26 02:32:58;;;;;;;12.93;9.25;;;11.00;58.60;;;;;;5074574;28;20036;-72
2023/01/26 02:35:23;;;;;;;13.88;9.90;;;11.00;58.00;;;;;;5074553;28;20024;-72
2023/01/26 02:37:49;;;;;;;14.10;10.35;;;11.00;58.00;;;;;;5074533;28;20036;-72
2023/01/26 02:40:40;;;;;;;13.88;10.23;;;11.00;58.10;;;;;;5074421;28;20036;-72
2023/01/26 02:43:06;;;;;;;11.82;8.73;;;11.00;58.10;;;;;;5074356;28;20031;-72
2023/01/26 02:45:33;;;;;;;12.45;9.60;;;11.00;58.10;;;;;;5074483;28;20100;-80
2023/01/26 02:48:03;;;;;;;11.80;9.25;;;11.00;58.10;;;;;;5074376;28;20390;-80
2023/01/26 02:50:29;;;;;;;12.93;9.32;;;11.00;58.20;;;;;;5056660;28;20489;-80
2023/01/26 02:52:55;;;;;;;12.77;9.45;;;11.00;58.10;;;;;;5074211;28;20119;-80
2023/01/26 02:55:29;;;;;;;12.32;9.30;;;11.00;58.80;;;;;;5074272;28;20099;-80
2023/01/26 02:58:03;;;;;;;13.15;9.35;;;11.00;58.10;;;;;;5074065;28;20056;-80
2023/01/26 03:00:33;;;;;;;12.70;8.88;;;11.00;58.10;;;;;;5073900;28;20071;-80
2023/01/26 03:03:01;;;;;;;12.48;9.48;;;11.00;58.10;;;;;;5074328;28;20432;-80
2023/01/26 03:05:27;;;;;;;11.27;8.60;;;11.00;58.10;;;;;;5074051;28;20414;-80
2023/01/26 03:07:53;;;;;;;12.45;8.27;;;11.00;58.70;;;;;;5073893;28;20031;-80
2023/01/26 03:10:19;;;;;;;11.70;8.70;;;11.00;58.10;;;;;;5073952;28;20398;-80
2023/01/26 03:12:45;;;;;;;11.13;8.82;;;11.00;58.10;;;;;;5073752;28;20032;-80
2023/01/26 03:29:00;;;;;;;11.45;8.18;;;11.00;58.10;;;;;;5074196;28;20064;-80
2023/01/26 03:31:26;;;;;;;11.32;8.27;;;11.00;58.10;;;;;;5073754;28;20059;-80
2023/01/26 03:33:51;;;;;;;11.38;8.73;;;11.00;58.00;;;;;;5073402;28;20081;-80
2023/01/26 03:36:17;;;;;;;9.95;8.18;;;11.00;58.00;;;;;;5073329;28;20028;-80
2023/01/26 03:38:42;;;;;;;11.13;8.15;;;11.00;58.00;;;;;;5073363;28;20027;-80
2023/01/26 03:57:32;;;;;;;9.52;7.78;;;11.00;58.10;;;;;;5073303;28;20042;-80
2023/01/26 03:59:58;;;;;;;9.82;7.50;;;11.00;58.00;;;;;;5072891;28;20494;-80
2023/01/26 04:10:35;;;;;;;9.52;7.50;;;11.00;58.00;;;;;;5072524;28;20035;-80
2023/01/26 04:21:34;;;;;;;9.32;7.57;;;11.00;58.00;;;;;;5072502;28;20079;-72
2023/01/26 04:24:08;;;;;;;8.40;7.25;;;11.00;58.00;;;;;;5072514;28;20355;-73
2023/01/26 04:26:35;;;;;;;8.77;7.13;;;11.00;58.00;;;;;;5072475;28;20029;-72
2023/01/26 04:29:09;;;;;;;8.57;6.97;;;11.00;58.60;;;;;;5072433;28;20029;-72
2023/01/26 04:31:37;;;;;;;8.38;6.65;;;11.00;57.90;;;;;;5072404;28;20445;-72
2023/01/26 04:34:04;;;;;;;9.32;7.57;;;11.00;58.00;;;;;;5072359;28;20017;-79
2023/01/26 04:36:31;;;;;;;9.88;7.82;;;11.00;58.00;;;;;;5072341;28;20036;-81
2023/01/26 04:38:56;;;;;;;10.05;7.60;;;11.00;57.90;;;;;;5072331;28;20031;-82
2023/01/26 04:41:22;;;;;;;7.35;6.35;;;11.00;58.00;;;;;;5072148;28;20048;-82
2023/01/26 04:43:48;;;;;;;8.45;7.22;;;11.00;58.00;;;;;;5072285;28;20040;-82
2023/01/26 04:46:14;;;;;;;8.90;7.03;;;11.00;58.10;;;;;;5072148;28;20089;-82
2023/01/26 04:48:40;;;;;;;8.40;6.75;;;11.00;58.00;;;;;;5072299;28;20032;-82
2023/01/26 04:51:10;;;;;;;8.95;7.35;;;11.00;58.00;;;;;;5072224;28;20024;-82
2023/01/26 04:53:36;;;;;;;9.00;6.80;;;11.00;58.00;;;;;;5072257;28;20028;-83
2023/01/26 04:56:02;;;;;;;8.30;7.00;;;11.10;58.10;;;;;;5072196;28;20095;-82
2023/01/26 04:58:27;;;;;;;8.23;6.60;;;11.00;58.00;;;;;;5072097;28;20107;-82
2023/01/26 05:00:55;;;;;;;8.00;6.82;;;11.00;58.00;;;;;;5071788;28;20048;-82
2023/01/26 05:03:21;;;;;;;8.45;6.70;;;11.10;58.00;;;;;;5071857;28;20479;-82
2023/01/26 05:05:51;;;;;;;8.23;7.15;;;11.10;58.00;;;;;;5071982;28;20029;-82
2023/01/26 05:08:18;;;;;;;8.57;6.97;;;11.10;58.00;;;;;;5071938;28;20025;-82
2023/01/26 05:10:44;;;;;;;7.47;6.15;;;11.10;58.00;;;;;;5072060;28;20043;-82
2023/01/26 05:13:10;;;;;;;7.97;6.82;;;11.10;58.10;;;;;;5071975;28;20029;-72
2023/01/26 05:15:36;;;;;;;8.18;6.32;;;11.10;58.00;;;;;;5071824;28;20031;-72
2023/01/26 05:18:02;;;;;;;8.07;7.10;;;11.10;58.10;;;;;;5071912;28;20016;-72
2023/01/26 05:20:28;;;;;;;7.03;6.28;;;11.10;58.00;;;;;;5071981;28;20032;-72
2023/01/26 05:22:53;;;;;;;7.85;6.25;;;11.10;58.00;;;;;;5074761;28;20032;-72
2023/01/26 05:25:19;;;;;;;7.25;6.00;;;11.10;58.10;;;;;;5075779;28;20020;-72
2023/01/26 05:27:45;;;;;;;7.43;6.43;;;11.10;58.10;;;;;;5075784;28;20056;-73
2023/01/26 05:30:11;;;;;;;7.90;6.35;;;11.10;58.10;;;;;;5076095;28;20020;-73
2023/01/26 05:32:37;;;;;;;8.13;6.55;;;11.10;58.10;;;;;;5075731;28;20111;-73
2023/01/26 05:35:04;;;;;;;8.18;6.20;;;11.10;58.10;;;;;;5075671;28;20383;-73
2023/01/26 05:37:29;;;;;;;7.50;6.03;;;11.10;58.10;;;;;;5075569;28;20043;-72
2023/01/26 05:39:55;;;;;;;6.88;6.10;;;11.10;58.70;;;;;;5075546;28;20032;-73
2023/01/26 05:42:22;;;;;;;7.85;6.00;;;11.10;58.20;;;;;;5075486;28;20119;-73
2023/01/26 05:44:48;;;;;;;7.45;6.00;;;11.00;58.10;;;;;;5075595;28;20046;-73
2023/01/26 05:47:14;;;;;;;8.18;6.65;;;11.00;58.10;;;;;;5075509;28;20064;-73
2023/01/26 05:49:44;;;;;;;7.35;6.28;;;11.10;58.10;;;;;;5075452;28;20095;-82
2023/01/26 05:52:14;;;;;;;8.10;6.68;;;11.10;58.10;;;;;;5075419;28;20086;-81
2023/01/26 05:54:40;;;;;;;;;;;11.10;58.10;;;;;;5075794;28;20024;-81
2023/01/26 05:57:06;;;;;;;7.25;5.93;;;11.00;58.10;;;;;;5075496;28;20534;-82
2023/01/26 05:59:32;;;;;;;6.78;5.97;;;11.00;58.10;;;;;;5075026;28;20426;-82
2023/01/26 06:01:58;;;;;;;6.88;5.97;;;11.10;58.20;;;;;;5075106;28;20037;-83
2023/01/26 06:04:23;;;;;;;7.35;5.43;;;11.10;58.20;;;;;;5075166;28;20031;-81
2023/01/26 06:06:52;;;;;;;7.85;5.75;;;11.10;58.10;;;;;;5075085;28;20074;-73
2023/01/26 06:09:18;;;;;;;7.22;5.53;;;11.10;58.10;;;;;;5075099;28;20044;-73
2023/01/26 06:11:44;;;;;;;11.27;6.95;;;11.10;58.20;;;;;;5074949;28;20528;-73
2023/01/26 06:14:10;;;;;;;8.75;6.88;;;11.10;58.30;;;;;;5074951;28;20028;-73
2023/01/26 06:16:36;;;;;;;11.73;7.55;;;11.00;58.30;;;;;;5079962;28;20028;-72
2023/01/26 06:19:02;;;;;;;12.98;8.73;;;11.10;58.30;;;;;;5078049;28;20020;-73
2023/01/26 06:21:27;;;;;;;11.25;7.40;;;11.00;58.30;;;;;;5074743;28;20040;-73
2023/01/26 06:23:53;;;;;;;13.77;7.97;;;11.00;59.00;;;;;;5074708;28;20032;-72
2023/01/26 06:26:19;;;;;;;11.32;7.43;;;11.00;58.30;;;;;;5080371;28;20024;-79
2023/01/26 06:28:44;;;;;;;11.88;7.95;;;11.00;58.20;;;;;;5077687;28;20033;-80
2023/01/26 06:31:10;;;;;;;13.82;8.43;;;11.10;58.40;;;;;;5074652;28;20033;-82
2023/01/26 06:33:37;;;;;;;13.25;7.60;;;11.10;58.40;;;;;;5074072;28;20052;-78
2023/01/26 06:36:05;;;;;;;11.23;7.75;;;11.10;58.30;;;;;;5074534;28;20024;-79
2023/01/26 06:38:31;;;;;;;11.38;8.02;;;11.10;58.90;;;;;;5074509;28;20513;-83
2023/01/26 06:41:05;;;;;;;12.20;7.95;;;11.10;58.90;;;;;;5074303;28;20036;-81
2023/01/26 06:43:32;;;;;;;12.75;7.93;;;11.10;58.30;;;;;;5074450;28;20027;-82
2023/01/26 06:45:58;;;;;;;11.52;7.82;;;11.10;58.20;;;;;;5074299;28;20024;-83
2023/01/26 06:48:29;;;;;;;11.30;8.23;;;11.10;58.30;;;;;;5074621;28;20486;-80
2023/01/26 06:50:57;;;;;;;12.98;8.68;;;11.10;58.30;;;;;;5074256;28;20036;-81
2023/01/26 06:53:33;;;;;;;11.23;7.47;;;11.10;58.40;;;;;;5074260;28;20032;-80
2023/01/26 06:55:59;;;;;;;10.57;7.57;;;11.10;59.10;;;;;;5074216;28;20089;-80
2023/01/26 06:58:25;;;;;;;11.73;8.38;;;11.10;58.50;;;;;;5074499;28;20017;-80
2023/01/26 07:00:51;;;;;;;11.32;8.15;;;11.10;58.60;;;;;;5073797;28;20051;-80
2023/01/26 07:03:17;;;;;;;12.95;7.80;;;11.10;58.60;;;;;;5074343;28;20387;-72
2023/01/26 07:05:43;;;;;;;12.05;7.45;;;11.10;58.60;;;;;;5074166;28;20060;-72
2023/01/26 07:08:09;;;;;;;12.15;7.97;;;11.10;58.80;;;;;;5074212;28;20089;-72
2023/01/26 07:10:36;;;;;;;11.20;8.07;;;11.10;58.80;;;;;;5074017;28;20500;-72
2023/01/26 07:13:04;;;;;;;12.98;7.65;;;11.10;58.80;;;;;;5073747;28;20020;-72
2023/01/26 07:15:30;;;;;;;11.63;7.75;;;11.10;58.80;;;;;;5073798;28;20107;-72
2023/01/26 07:17:56;;;;;;;10.68;8.20;;;11.20;58.90;;;;;;5073647;28;20099;-72
2023/01/26 07:20:23;;;;;;;14.30;8.43;;;11.20;58.90;;;;;;5073973;28;20082;-79
2023/01/26 07:22:49;;;;;;;10.65;7.53;;;11.10;58.90;;;;;;5073740;28;20025;-77
2023/01/26 07:25:16;;;;;;;11.20;8.35;;;11.10;59.00;;;;;;5073630;28;20034;-78
2023/01/26 07:27:42;;;;;;;11.48;7.80;;;11.10;59.00;;;;;;5073631;28;20054;-78
2023/01/26 07:30:09;;;;;;;10.95;7.63;;;11.20;59.00;;;;;;5073432;28;20037;-77
2023/01/26 07:32:35;;;;;;;12.65;7.93;;;11.20;59.00;;;;;;5073394;28;20078;-75
2023/01/26 07:35:00;;;;;;;11.35;7.85;;;11.10;59.10;;;;;;5073241;28;20036;-78
2023/01/26 07:37:29;;;;;;;11.35;8.18;;;11.20;59.10;;;;;;5073509;28;20060;-75
2023/01/26 07:39:55;;;;;;;18.08;8.70;;;11.20;59.10;;;;;;5073215;28;20036;-75
2023/01/26 07:42:21;;;;;;;12.65;9.23;;;11.20;59.10;;;;;;5073509;28;20025;-75
2023/01/26 07:44:47;;;;;;;11.90;8.68;;;11.20;59.10;;;;;;5072453;28;20029;-76
2023/01/26 07:47:13;;;;;;;12.65;8.70;;;11.20;59.20;;;;;;5073126;28;20035;-76
2023/01/26 07:49:39;;;;;;;10.95;8.18;;;11.20;59.20;;;;;;5073139;28;20382;-76
2023/01/26 07:52:05;;;;;;;12.90;8.00;;;11.20;59.30;;;;;;5073098;28;20036;-75
2023/01/26 07:54:31;;;;;;;10.35;7.20;;;11.20;59.20;;;;;;5073010;28;20028;-76
2023/01/26 07:56:57;;;;;;;10.30;7.15;;;11.30;59.30;;;;;;5073008;28;20086;-76
2023/01/26 07:59:23;;;;;;;10.52;7.10;;;11.20;59.30;;;;;;5072917;28;20021;-76
2023/01/26 08:01:49;;;;;;;11.43;7.38;;;11.30;59.40;;;;;;5073021;28;20090;-77
2023/01/26 08:04:15;;;;;;;9.70;7.05;;;11.30;59.40;;;;;;5072828;28;20048;-76
2023/01/26 08:06:41;;;;;;;11.65;7.35;;;11.30;59.40;;;;;;5072805;28;20505;-78
2023/01/26 08:09:07;;;;;;;12.82;7.15;;;11.30;59.40;;;;;;5072905;28;20016;-78
2023/01/26 08:11:33;;;;;;;10.25;6.90;;;11.30;59.40;;;;;;5072721;28;20029;-78
2023/01/26 08:13:58;;;;;;;10.95;7.15;;;11.30;59.40;;;;;;5072909;28;20027;-78
2023/01/26 08:16:24;;;;;;;10.38;7.15;;;11.30;59.40;;;;;;5072733;28;20107;-72
2023/01/26 08:18:50;;;;;;;11.10;7.20;;;11.30;59.50;;;;;;5072736;28;20032;-72
2023/01/26 08:21:17;;;;;;;12.23;6.78;;;11.30;60.00;;;;;;5072504;28;20356;-72
2023/01/26 08:23:50;;;;;;;11.15;6.07;;;11.30;59.50;;;;;;5072766;28;20097;-72
2023/01/26 08:26:17;;;;;;;11.25;6.72;;;11.40;59.50;;;;;;5072554;28;20104;-74
2023/01/26 08:28:44;;;;;;;10.35;6.32;;;11.40;59.60;;;;;;5072506;28;20147;-75
2023/01/26 08:31:12;;;;;;;11.00;7.20;;;11.40;59.50;;;;;;5072509;28;20501;-75
2023/01/26 08:33:41;;;;;;;10.27;5.70;;;11.40;59.60;;;;;;5072526;28;20108;-74
2023/01/26 08:36:10;;;;;;;10.15;6.05;;;11.40;59.50;;;;;;5072378;28;20126;-74
2023/01/26 08:38:36;;;;;;;7.88;5.75;;;11.40;59.60;;;;;;5072394;28;20024;-74
2023/01/26 08:41:02;;;;;;;10.35;6.63;;;11.40;59.60;;;;;;5072279;28;20040;-74
2023/01/26 08:43:28;;;;;;;9.10;6.00;;;11.40;59.70;;;;;;5072562;28;20024;-75
2023/01/26 08:45:54;;;;;;;8.35;4.95;;;11.40;59.60;;;;;;5072558;28;20021;-73
2023/01/26 08:48:20;;;;;;;10.52;5.25;;;11.40;59.70;;;;;;5072127;28;20471;-72
2023/01/26 08:50:46;;;;;;;8.43;5.05;;;11.40;59.70;;;;;;5072410;28;20063;-72
2023/01/26 08:53:12;;;;;;;7.78;4.70;;;11.40;59.70;;;;;;5072362;28;20032;-73
2023/01/26 08:55:37;;;;;;;9.77;4.78;;;11.50;60.40;;;;;;5072301;28;20029;-72
2023/01/26 08:58:03;;;;;;;9.45;5.15;;;11.40;59.70;;;;;;5072182;28;20020;-73
2023/01/26 09:00:30;;;;;;;8.10;4.63;;;11.50;59.80;;;;;;5071731;28;20053;-75
2023/01/26 09:03:00;;;;;;;7.70;5.05;;;11.50;59.80;;;;;;5072000;28;20078;-72
2023/01/26 09:05:26;;;;;;;8.48;4.45;;;11.50;59.80;;;;;;5072088;28;20044;-74
2023/01/26 09:07:52;;;;;;;6.97;4.25;;;11.50;59.80;;;;;;5071941;28;20020;-74
2023/01/26 09:10:18;;;;;;;7.15;3.95;;;11.60;59.90;;;;;;5072261;28;20017;-76
2023/01/26 09:12:44;;;;;;;8.50;4.07;;;11.50;59.90;;;;;;5072318;28;20083;-78
2023/01/26 09:15:09;;;;;;;10.38;4.22;;;11.50;59.90;;;;;;5072271;28;20025;-79
2023/01/26 09:17:36;;;;;;;9.80;4.35;;;11.60;59.90;;;;;;5071930;28;20035;-78
2023/01/26 09:20:03;;;;;;;9.05;4.13;;;11.60;59.90;;;;;;5071814;28;20025;-79
2023/01/26 09:22:29;;;;;;;10.23;4.15;;;11.60;60.00;;;;;;5071896;28;20031;-78
2023/01/26 09:24:55;;;;;;;13.30;4.60;;;11.60;60.00;;;;;;5071940;28;20074;-78
2023/01/26 09:27:21;;;;;;;8.68;3.92;;;11.60;60.10;;;;;;5071894;28;20497;-78
2023/01/26 09:29:46;;;;;;;7.93;3.90;;;11.60;60.00;;;;;;5071948;28;20078;-78
2023/01/26 09:32:12;;;;;;;5.03;3.40;;;11.60;60.70;;;;;;5071901;28;20033;-79
2023/01/26 09:34:37;;;;;;;8.70;3.72;;;11.70;60.00;;;;;;5071717;28;20028;-78
2023/01/26 09:37:05;;;;;;;9.10;3.55;;;11.70;60.10;;;;;;5071781;28;20032;-78
2023/01/26 09:39:31;;;;;;;6.70;3.50;;;11.60;60.00;;;;;;5071713;28;20025;-78
2023/01/26 09:42:36;;;;;;;5.07;3.03;;;11.70;60.10;;;;;;5071663;28;20398;-78
2023/01/26 09:45:11;;;;;;;5.05;3.22;;;11.70;60.10;;;;;;5071830;28;20110;-79
2023/01/26 09:47:51;;;;;;;6.47;3.17;;;11.70;60.20;;;;;;5071678;28;20096;-73
2023/01/26 09:50:24;;;;;;;7.93;3.13;;;11.70;60.20;;;;;;5071672;28;20028;-74
2023/01/26 09:52:57;;;;;;;7.45;3.72;;;11.70;60.20;;;;;;5071671;28;20115;-73
2023/01/26 09:55:24;;;;;;;5.13;2.92;;;11.80;60.20;;;;;;5071944;28;20060;-73
2023/01/26 09:57:52;;;;;;;6.03;3.28;;;11.80;60.30;;;;;;5071573;28;20032;-73
2023/01/26 10:00:27;;;;;;;8.40;2.92;;;11.80;60.20;;;;;;5071403;28;20036;-73
2023/01/26 10:03:07;;;;;;;7.53;3.00;;;11.80;60.30;;;;;;5071426;28;20100;-74
2023/01/26 10:05:51;;;;;;;;;;;11.80;60.30;;;;;;5071871;28;20435;-78
2023/01/26 10:08:22;;;;;;;5.13;2.67;;;11.80;60.30;;;;;;5073104;28;19905;-78
2023/01/26 10:10:52;;;;;;;6.63;2.85;;;11.90;60.40;;;;;;5056550;28;20078;-78
2023/01/26 10:13:20;;;;;;;6.70;2.97;;;11.90;60.50;;;;;;5039466;28;20067;-78
2023/01/26 10:15:55;;;;;;;6.00;2.92;;;11.90;60.50;;;;;;5040690;28;20078;-78
2023/01/26 10:18:32;;;;;;;6.82;2.85;;;11.90;60.50;;;;;;5041904;28;20052;-78
2023/01/26 10:21:01;;;;;;;5.53;2.65;;;11.90;60.50;;;;;;5057699;28;20144;-78
2023/01/26 10:23:29;;;;;;;5.50;2.58;;;11.90;60.60;;;;;;5040796;28;20535;-78
2023/01/26 10:26:11;;;;;;;6.05;2.83;;;11.90;60.60;;;;;;5056919;28;20051;-74
2023/01/26 10:28:40;;;;;;;4.65;2.25;;;11.90;60.60;;;;;;5040630;28;20071;-73
2023/01/26 10:31:14;;;;;;;5.45;2.40;;;11.90;60.60;;;;;;5040452;28;20115;-73
2023/01/26 10:33:52;;;;;;;6.70;2.28;;;11.90;60.70;;;;;;5040520;28;20039;-74
2023/01/26 10:36:18;;;;;;;5.85;2.42;;;11.90;60.70;;;;;;5058360;28;20024;-73
2023/01/26 10:38:45;;;;;;;6.72;2.63;;;12.00;60.70;;;;;;5023553;28;20039;-73
2023/01/26 10:41:13;;;;;;;7.13;2.92;;;12.00;60.70;;;;;;5023567;28;20093;-73
2023/01/26 10:43:51;;;;;;;6.70;2.42;;;12.00;60.60;;;;;;5074501;28;20032;-79
2023/01/26 10:46:37;;;;;;;4.68;2.50;;;12.10;60.70;;;;;;5056869;28;20036;-78
2023/01/26 10:49:15;;;;;;;5.22;2.53;;;12.00;60.60;;;;;;5056570;28;20025;-78
2023/01/26 10:51:44;;;;;;;7.13;2.60;;;12.10;60.70;;;;;;5056404;28;20429;-78
2023/01/26 10:54:14;;;;;;;4.35;1.77;;;12.10;60.80;;;;;;5040248;28;20024;-78
2023/01/26 10:56:59;;;;;;;;;;;12.10;60.70;;;;;;5074708;28;20166;-78
2023/01/26 10:59:44;;;;;;;3.58;2.15;;;12.10;60.70;;;;;;5074148;28;20045;-78
2023/01/26 11:02:10;;;;;;;5.45;2.30;;;12.20;60.80;;;;;;5056241;28;20123;-73
2023/01/26 11:04:37;;;;;;;3.38;1.83;;;12.20;60.80;;;;;;5074230;28;20052;-73
2023/01/26 11:07:25;;;;;;;4.13;2.08;;;12.20;60.70;;;;;;5074067;28;20029;-73
2023/01/26 11:09:52;;;;;;;6.18;1.95;;;12.20;60.60;;;;;;5074529;28;20020;-74
2023/01/26 11:12:19;;;;;;;4.82;2.30;;;12.20;60.60;;;;;;5074000;28;20028;-73
2023/01/26 11:15:03;;;;;;;4.25;2.30;;;12.30;60.70;;;;;;5073803;28;20025;-73
2023/01/26 11:17:44;;;;;;;5.32;2.20;;;12.30;60.60;;;;;;5073768;28;20483;-73
2023/01/26 11:20:41;;;;;;;4.85;2.22;;;12.30;60.70;;;;;;5073720;28;20029;-78
2023/01/26 11:23:21;;;;;;;5.10;2.20;;;12.30;60.60;;;;;;5073699;28;20033;-78
2023/01/26 11:25:52;;;;;;;8.98;2.25;;;12.40;60.60;;;;;;5073943;28;20378;-79
2023/01/26 11:28:42;;;;;;;5.00;1.80;;;12.40;60.60;;;;;;5073668;28;20458;-78
2023/01/26 11:31:11;;;;;;;4.82;2.10;;;12.40;60.60;;;;;;5073860;28;20028;-79
2023/01/26 11:33:55;;;;;;;4.70;1.80;;;12.50;60.70;;;;;;5073508;28;20028;-79
2023/01/26 11:36:36;;;;;;;6.30;2.28;;;12.50;60.60;;;;;;5073891;28;20441;-79
2023/01/26 11:39:20;;;;;;;4.45;2.45;;;12.60;60.60;;;;;;5073563;28;20375;-79
2023/01/26 11:41:51;;;;;;;5.20;2.22;;;12.60;60.50;;;;;;5055382;28;20036;-79
2023/01/26 11:44:24;;;;;;;4.93;1.70;;;12.60;60.50;;;;;;5073334;28;20033;-78
2023/01/26 11:47:12;;;;;;;7.13;2.00;;;12.60;60.40;;;;;;5073300;28;20426;-79
2023/01/26 11:49:56;;;;;;;6.75;2.22;;;12.80;60.20;;;;;;5073230;28;20471;-78
2023/01/26 11:52:30;;;;;;;8.27;2.35;;;12.90;60.10;;;;;;5073185;28;20033;-79
2023/01/26 11:55:42;;;;;;;3.83;1.55;;;13.00;59.90;;;;;;5073179;28;20025;-79
2023/01/26 11:58:26;;;;;;;6.63;2.03;;;13.00;59.70;;;;;;5055281;28;20028;-73
2023/01/26 12:00:56;;;;;;;4.47;2.30;;;13.10;59.60;;;;;;5072787;28;20136;-73
2023/01/26 12:03:24;;;;;;;2.75;1.77;;;13.20;59.60;;;;;;5072899;28;20028;-73
2023/01/26 12:05:59;;;;;;;4.05;1.80;;;13.20;59.60;;;;;;5073120;28;20025;-73
2023/01/26 12:08:39;;;;;;;4.93;1.60;;;13.20;59.60;;;;;;5072851;28;20078;-73
2023/01/26 12:11:24;;;;;;;5.55;2.03;;;13.20;59.60;;;;;;5072756;28;20021;-73
2023/01/26 12:14:04;;;;;;;5.65;1.67;;;13.20;59.70;;;;;;5073337;28;20060;-73
2023/01/26 12:16:42;;;;;;;7.13;2.65;;;13.20;59.80;;;;;;5072762;28;20032;-79
2023/01/26 12:19:29;;;;;;;7.18;2.15;;;13.20;59.70;;;;;;5072944;28;20028;-78
2023/01/26 12:22:04;;;;;;;5.57;1.83;;;13.30;59.60;;;;;;5072539;28;20123;-79
2023/01/26 12:24:39;;;;;;;5.57;1.90;;;13.40;59.50;;;;;;5072644;28;20103;-79
2023/01/26 12:27:34;;;;;;;6.72;2.28;;;13.50;59.20;;;;;;5072560;28;20036;-79
2023/01/26 12:30:32;;;;;;;4.80;2.00;;;13.50;59.20;;;;;;5067174;28;20032;-79
2023/01/26 12:32:58;;;;;;;6.38;1.88;;;13.50;59.20;;;;;;5072909;28;20379;-73
2023/01/26 12:36:01;;;;;;;6.05;1.90;;;13.50;59.30;;;;;;5072765;28;20021;-73
2023/01/26 12:38:58;;;;;;;3.72;1.73;;;13.60;59.30;;;;;;5072364;28;20110;-73
2023/01/26 12:41:34;;;;;;;4.55;1.60;;;13.50;59.30;;;;;;5052341;28;20087;-73
2023/01/26 12:44:25;;;;;;;5.13;1.88;;;13.50;59.60;;;;;;5072427;28;20395;-73
2023/01/26 12:47:23;;;;;;;3.83;1.23;;;13.40;59.70;;;;;;5072363;28;20407;-73
2023/01/26 12:50:19;;;;;;;3.67;1.38;;;13.40;59.70;;;;;;5072216;28;20020;-73
2023/01/26 12:53:00;;;;;;;4.07;1.40;;;13.40;59.80;;;;;;5072234;28;20028;-79
2023/01/26 12:55:34;;;;;;;5.53;1.73;;;13.40;60.30;;;;;;5072161;28;20102;-79
2023/01/26 12:58:10;;;;;;;3.05;1.20;;;13.40;60.40;;;;;;5072180;28;20613;-79
2023/01/26 13:00:37;;;;;;;6.07;1.30;;;13.40;60.50;;;;;;5071917;28;20118;-79
2023/01/26 13:03:50;;;;;;;2.90;1.10;;;13.30;60.50;;;;;;5071968;28;20028;-79
2023/01/26 13:06:19;;;;;;;2.65;1.10;;;13.30;60.20;;;;;;5027414;28;20036;-79
2023/01/26 13:08:52;;;;;;;4.50;1.20;;;13.30;60.70;;;;;;5072060;28;20017;-79
2023/01/26 13:11:42;;;;;;;3.80;1.42;;;13.30;60.80;;;;;;5072183;28;20033;-79
2023/01/26 13:14:23;;;;;;;;;;;13.30;60.50;;;;;;5072402;28;20103;-79
2023/01/26 13:16:48;;;;;;;;;;;13.30;60.30;;;;;;5072364;28;19966;-79
2023/01/26 13:19:42;;;;;;;4.45;1.70;;;13.30;60.40;;;;;;5071861;28;19947;-79
2023/01/26 13:22:22;;;;;;;5.95;1.58;;;13.30;60.70;;;;;;5071868;28;20063;-79
2023/01/26 13:24:58;;;;;;;6.90;1.50;;;13.40;60.80;;;;;;5071652;28;20048;-79
2023/01/26 13:27:57;;;;;;;6.63;1.42;;;13.50;60.70;;;;;;5072106;28;20028;-79
2023/01/26 13:30:25;;;;;;;3.27;1.23;;;13.70;59.80;;;;;;5053567;28;20075;-79
2023/01/26 13:32:52;;;;;;;3.33;1.30;;;13.80;59.90;;;;;;5071655;28;20306;-79
2023/01/26 13:35:21;;;;;;;3.42;1.42;;;13.80;60.00;;;;;;5071695;28;20028;-79
2023/01/26 13:38:08;;;;;;;5.30;1.42;;;13.80;60.00;;;;;;5071727;28;20067;-79
2023/01/26 13:40:45;;;;;;;3.63;1.67;;;13.80;60.00;;;;;;5071606;28;20038;-78
2023/01/26 13:43:29;;;;;;;3.75;1.42;;;13.80;60.00;;;;;;5073446;28;20017;-79
2023/01/26 13:45:58;;;;;;;4.07;1.23;;;13.80;59.60;;;;;;5075543;28;20025;-79
2023/01/26 13:48:45;;;;;;;8.30;2.30;;;13.80;60.00;;;;;;5075467;28;20483;-73